createdAt,value
2023-04-10T00:03:52.938Z,44.3
2023-04-10T00:06:21.199Z,42.8
2023-04-10T00:07:35.926Z,46.1
2023-04-10T00:08:49.478Z,47.9
2023-04-10T00:11:17.737Z,46.8
2023-04-10T00:13:45.985Z,48.2
2023-04-10T00:16:14.245Z,48.5
2023-04-10T00:18:42.507Z,47.7
2023-04-10T00:21:10.760Z,46.2
2023-04-10T00:23:39.021Z,45.7
2023-04-10T00:26:07.275Z,46.1
2023-04-10T00:28:35.533Z,46.1
2023-04-10T00:31:03.786Z,46.4
2023-04-10T00:33:32.050Z,43.5
2023-04-10T00:36:00.305Z,44.9
2023-04-10T00:38:28.561Z,46.6
2023-04-10T00:40:56.819Z,45.1
2023-04-10T00:43:25.081Z,48.7
2023-04-10T00:45:53.330Z,50.2
2023-04-10T00:48:21.593Z,47.9
2023-04-10T00:50:49.849Z,47.2
2023-04-10T00:53:18.110Z,49.5
2023-04-10T00:55:46.367Z,45.3
2023-04-10T00:57:01.110Z,43.6
2023-04-10T00:58:14.659Z,45.8
2023-04-10T01:00:42.919Z,49
2023-04-10T01:05:39.424Z,43.3
2023-04-10T01:08:07.688Z,46.7
2023-04-10T01:10:35.945Z,46.2
2023-04-10T01:13:04.197Z,46.4
2023-04-10T01:15:32.453Z,46.1
2023-04-10T01:18:00.717Z,47.6
2023-04-10T01:20:28.974Z,48.9
2023-04-10T01:21:43.707Z,47.7
2023-04-10T01:22:57.245Z,48.7
2023-04-10T01:25:25.507Z,43.1
2023-04-10T01:27:53.768Z,44
2023-04-10T01:30:22.026Z,46.9
2023-04-10T01:32:50.278Z,49
2023-04-10T01:37:46.794Z,43.9
2023-04-10T01:40:15.044Z,49.4
2023-04-10T01:42:43.303Z,51.5
2023-04-10T01:45:11.561Z,49.2
2023-04-10T01:46:26.296Z,50.9
2023-04-10T01:47:39.838Z,46.1
2023-04-10T01:50:08.096Z,44.3
2023-04-10T01:52:36.354Z,45.8
2023-04-10T01:55:04.605Z,47
2023-04-10T01:57:32.866Z,46.5
2023-04-10T02:00:01.122Z,46.5
2023-04-10T02:02:29.375Z,43.9
2023-04-10T02:04:57.641Z,43
2023-04-10T02:09:54.152Z,44.4
2023-04-10T02:11:08.876Z,44.9
2023-04-10T02:12:22.425Z,40.3
2023-04-10T02:14:50.684Z,43.4
2023-04-10T02:17:18.938Z,43
2023-04-10T02:19:47.199Z,44.6
2023-04-10T02:22:15.454Z,39
2023-04-10T02:24:43.712Z,44.6
2023-04-10T02:27:11.965Z,42.1
2023-04-10T02:29:40.221Z,43.1
2023-04-10T02:32:08.482Z,42.5
2023-04-10T02:34:36.739Z,41.5
2023-04-10T02:35:51.463Z,43.2
2023-04-10T02:39:33.505Z,41.5
2023-04-10T02:42:01.760Z,42
2023-04-10T02:44:30.016Z,44
2023-04-10T02:46:58.279Z,39
2023-04-10T02:49:26.534Z,44.2
2023-04-10T02:51:54.792Z,44.2
2023-04-10T02:54:23.049Z,43.6
2023-04-10T02:56:51.303Z,42.4
2023-04-10T02:59:19.554Z,43.4
2023-04-10T03:00:34.291Z,41.8
2023-04-10T03:01:47.831Z,41.5
2023-04-10T03:04:16.088Z,43.9
2023-04-10T03:06:44.353Z,40.7
2023-04-10T03:11:40.862Z,44
2023-04-10T03:14:09.118Z,42.1
2023-04-10T03:16:37.376Z,43.1
2023-04-10T03:19:05.633Z,43.4
2023-04-10T03:21:33.898Z,44.6
2023-04-10T03:24:02.150Z,45.3
2023-04-10T03:25:16.880Z,44.3
2023-04-10T03:26:30.427Z,43
2023-04-10T03:28:58.688Z,44.7
2023-04-10T03:31:26.939Z,44.3
2023-04-10T03:33:55.195Z,40.6
2023-04-10T03:36:23.460Z,44.9
2023-04-10T03:38:51.716Z,41.2
2023-04-10T03:43:48.232Z,43.7
2023-04-10T03:46:16.489Z,39.3
2023-04-10T03:48:44.739Z,41.9
2023-04-10T03:49:59.473Z,41.7
2023-04-10T03:51:13.013Z,43.2
2023-04-10T03:53:41.276Z,42.6
2023-04-10T03:56:09.534Z,42.4
2023-04-10T03:58:37.791Z,44.9
2023-04-10T04:01:06.044Z,42
2023-04-10T04:03:34.307Z,41.8
2023-04-10T04:06:02.563Z,41
2023-04-10T04:08:30.816Z,39.9
2023-04-10T04:10:59.079Z,43.2
2023-04-10T04:14:42.061Z,41.4
2023-04-10T04:15:55.613Z,39.7
2023-04-10T04:18:23.864Z,40.4
2023-04-10T04:20:52.128Z,46.4
2023-04-10T04:23:20.384Z,42.9
2023-04-10T04:25:48.640Z,37.5
2023-04-10T04:28:16.899Z,40.1
2023-04-10T04:30:45.148Z,40.6
2023-04-10T04:33:13.415Z,41.2
2023-04-10T04:35:41.669Z,39.5
2023-04-10T04:38:09.917Z,40.4
2023-04-10T04:39:24.648Z,42.4
2023-04-10T04:40:38.200Z,38.8
2023-04-10T04:45:34.714Z,40.1
2023-04-10T04:48:02.965Z,40.7
2023-04-10T04:50:31.229Z,40.1
2023-04-10T04:52:59.481Z,39
2023-04-10T04:55:27.738Z,39.6
2023-04-10T04:57:56.001Z,41.2
2023-04-10T05:00:24.256Z,37.1
2023-04-10T05:02:52.508Z,41.2
2023-04-10T05:04:07.244Z,39.2
2023-04-10T05:05:20.785Z,39.2
2023-04-10T05:07:49.043Z,36.5
2023-04-10T05:10:17.308Z,40.4
2023-04-10T05:12:45.556Z,40.5
2023-04-10T05:17:42.077Z,40
2023-04-10T05:20:10.334Z,39
2023-04-10T05:22:38.586Z,38.7
2023-04-10T05:25:06.842Z,41.2
2023-04-10T05:27:35.103Z,36.4
2023-04-10T05:28:49.833Z,39.6
2023-04-10T05:30:03.383Z,37.5
2023-04-10T05:32:31.633Z,36.6
2023-04-10T05:34:59.897Z,37.5
2023-04-10T05:37:28.148Z,34.2
2023-04-10T05:39:56.401Z,35.5
2023-04-10T05:42:24.667Z,36.2
2023-04-10T05:44:52.925Z,36.5
2023-04-10T05:49:49.433Z,34.1
2023-04-10T05:52:17.695Z,35.9
2023-04-10T05:53:32.416Z,35
2023-04-10T05:54:45.966Z,33.5
2023-04-10T05:57:14.228Z,34.8
2023-04-10T05:59:42.480Z,34.1
2023-04-10T06:02:10.740Z,34.6
2023-04-10T06:04:38.995Z,34.2
2023-04-10T06:07:07.250Z,31.3
2023-04-10T06:09:35.510Z,33.2
2023-04-10T06:12:03.760Z,34
2023-04-10T06:14:32.023Z,35.5
2023-04-10T06:17:00.279Z,33.8
2023-04-10T06:19:28.539Z,33.6
2023-04-10T06:21:56.793Z,32.7
2023-04-10T06:24:25.052Z,31.3
2023-04-10T06:26:53.309Z,32.4
2023-04-10T06:29:21.568Z,30.4
2023-04-10T06:31:49.819Z,30.4
2023-04-10T06:34:18.076Z,30.4
2023-04-10T06:36:46.332Z,29.5
2023-04-10T06:39:14.587Z,29.8
2023-04-10T06:41:42.847Z,29.8
2023-04-10T06:42:57.591Z,27.8
2023-04-10T06:44:11.139Z,30
2023-04-10T06:46:39.397Z,29.7
2023-04-10T06:51:35.909Z,30.8
2023-04-10T06:54:04.167Z,28.9
2023-04-10T06:56:32.431Z,27.1
2023-04-10T06:59:00.678Z,27.5
2023-04-10T07:01:28.934Z,27
2023-04-10T07:03:57.187Z,26.8
2023-04-10T07:06:25.444Z,28.5
2023-04-10T07:07:40.180Z,26.9
2023-04-10T07:08:53.721Z,26.7
2023-04-10T07:11:21.983Z,26.7
2023-04-10T07:13:50.241Z,26.4
2023-04-10T07:16:18.495Z,26
2023-04-10T07:18:46.754Z,26.4
2023-04-10T07:23:43.268Z,26.5
2023-04-10T07:26:11.521Z,25.8
2023-04-10T07:28:39.780Z,26.8
2023-04-10T07:31:08.031Z,28.5
2023-04-10T07:32:22.763Z,25.7
2023-04-10T07:33:36.316Z,25.7
2023-04-10T07:36:04.571Z,25.8
2023-04-10T07:38:32.827Z,24.6
2023-04-10T07:41:01.080Z,25.6
2023-04-10T07:43:29.338Z,25
2023-04-10T07:45:57.591Z,25.9
2023-04-10T07:48:25.849Z,24.3
2023-04-10T07:50:54.111Z,23.4
2023-04-10T07:55:50.623Z,23.2
2023-04-10T07:57:05.349Z,24.6
2023-04-10T07:58:18.895Z,22.6
2023-04-10T08:00:47.152Z,23.9
2023-04-10T08:03:15.415Z,23.3
2023-04-10T08:05:43.667Z,23.4
2023-04-10T08:08:11.926Z,21.6
2023-04-10T08:10:40.185Z,20.4
2023-04-10T08:13:08.436Z,21.7
2023-04-10T08:15:36.698Z,20.5
2023-04-10T08:18:04.950Z,20.4
2023-04-10T08:20:33.213Z,20.9
2023-04-10T08:21:47.938Z,21.2
2023-04-10T08:25:29.968Z,21.6
2023-04-10T08:27:58.226Z,20.1
2023-04-10T08:30:26.481Z,19.3
2023-04-10T08:32:54.742Z,19.6
2023-04-10T08:35:22.999Z,18.3
2023-04-10T08:37:51.251Z,19.4
2023-04-10T08:40:19.511Z,19.5
2023-04-10T08:42:47.769Z,17.8
2023-04-10T08:45:16.027Z,19
2023-04-10T08:46:30.758Z,18.2
2023-04-10T08:47:44.302Z,18.3
2023-04-10T08:50:12.556Z,18.6
2023-04-10T08:52:40.818Z,18.1
2023-04-10T08:57:37.329Z,17.9
2023-04-10T09:00:05.588Z,19.3
2023-04-10T09:02:33.839Z,17.3
2023-04-10T09:05:02.103Z,15.6
2023-04-10T09:07:30.354Z,17.5
2023-04-10T09:09:58.617Z,15.4
2023-04-10T09:11:13.339Z,15.4
2023-04-10T09:12:26.894Z,15.3
2023-04-10T09:14:55.146Z,16.4
2023-04-10T09:17:23.402Z,15.8
2023-04-10T09:19:51.658Z,15.7
2023-04-10T09:22:19.919Z,15.1
2023-04-10T09:24:48.172Z,14.5
2023-04-10T09:29:44.692Z,12.8
2023-04-10T09:32:12.940Z,14.2
2023-04-10T09:34:41.198Z,13.6
2023-04-10T09:35:55.926Z,14
2023-04-10T09:37:09.475Z,13.4
2023-04-10T09:39:37.733Z,13.6
2023-04-10T09:42:05.988Z,13
2023-04-10T09:44:34.243Z,13.6
2023-04-10T09:47:02.503Z,12.6
2023-04-10T09:49:30.759Z,13.4
2023-04-10T09:51:59.012Z,13.3
2023-04-10T09:54:27.265Z,13.1
2023-04-10T09:56:55.524Z,14
2023-04-10T10:00:38.516Z,11.4
2023-04-10T10:01:52.063Z,10.9
2023-04-10T10:04:20.319Z,11.4
2023-04-10T10:06:48.576Z,10.8
2023-04-10T10:09:16.831Z,11.1
2023-04-10T10:11:45.092Z,13.2
2023-04-10T10:14:13.350Z,10.8
2023-04-10T10:16:41.598Z,10.4
2023-04-10T10:19:09.865Z,11.1
2023-04-10T10:21:38.119Z,10.9
2023-04-10T10:24:06.372Z,11.4
2023-04-10T10:25:21.110Z,8.8
2023-04-10T10:26:34.652Z,8.5
2023-04-10T10:31:31.165Z,9.3
2023-04-10T10:33:59.425Z,10.1
2023-04-10T10:36:27.686Z,10.3
2023-04-10T10:38:55.939Z,9.9
2023-04-10T10:41:24.198Z,10.2
2023-04-10T10:43:52.461Z,11.3
2023-04-10T10:46:20.711Z,10.3
2023-04-10T10:48:48.973Z,9.7
2023-04-10T10:50:03.699Z,10.4
2023-04-10T10:51:17.244Z,10.4
2023-04-10T10:53:45.505Z,9.7
2023-04-10T10:56:13.759Z,10
2023-04-10T10:58:42.019Z,9.7
2023-04-10T11:03:38.535Z,9.7
2023-04-10T11:06:06.795Z,8.5
2023-04-10T11:08:35.055Z,10.7
2023-04-10T11:11:03.310Z,9.3
2023-04-10T11:13:31.563Z,9.3
2023-04-10T11:14:46.299Z,10.2
2023-04-10T11:15:59.846Z,10.6
2023-04-10T11:18:28.103Z,10.9
2023-04-10T11:20:56.363Z,10.9
2023-04-10T11:23:24.615Z,10.6
2023-04-10T11:25:52.870Z,10.1
2023-04-10T11:28:21.133Z,10.2
2023-04-10T11:30:49.390Z,10.6
2023-04-10T11:35:45.895Z,9.9
2023-04-10T11:38:14.146Z,9.8
2023-04-10T11:39:28.879Z,8.8
2023-04-10T11:40:42.423Z,9.5
2023-04-10T11:43:10.681Z,9.6
2023-04-10T11:45:38.936Z,8.8
2023-04-10T11:48:07.193Z,8.8
2023-04-10T11:50:35.459Z,9.1
2023-04-10T11:53:03.706Z,10
2023-04-10T11:55:31.963Z,9.5
2023-04-10T11:58:00.229Z,10.6
2023-04-10T12:00:28.484Z,10
2023-04-10T12:02:56.738Z,8.5
2023-04-10T12:05:24.998Z,8.8
2023-04-10T12:07:53.258Z,11.1
2023-04-10T12:10:21.506Z,9.1
2023-04-10T12:12:49.765Z,9
2023-04-10T12:15:18.021Z,8.2
2023-04-10T12:17:46.278Z,8.5
2023-04-10T12:20:14.540Z,10.2
2023-04-10T12:22:42.796Z,9.1
2023-04-10T12:25:11.055Z,8.1
2023-04-10T12:27:39.308Z,8.6
2023-04-10T12:28:54.057Z,9.9
2023-04-10T12:30:07.603Z,8.4
2023-04-10T12:32:35.860Z,7.7
2023-04-10T12:37:32.377Z,8.6
2023-04-10T12:40:00.628Z,8.5
2023-04-10T12:42:28.885Z,9
2023-04-10T12:44:57.149Z,7.3
2023-04-10T12:47:25.401Z,6.9
2023-04-10T12:49:53.655Z,6.8
2023-04-10T12:52:21.911Z,6.6
2023-04-10T12:53:36.642Z,7.3
2023-04-10T12:54:50.191Z,6.6
2023-04-10T12:57:18.452Z,7
2023-04-10T12:59:46.709Z,6.9
2023-04-10T13:02:14.965Z,6
2023-04-10T13:04:43.216Z,6.9
2023-04-10T13:09:39.728Z,8.3
2023-04-10T13:12:07.989Z,6.7
2023-04-10T13:14:36.248Z,6.3
2023-04-10T13:17:04.506Z,6.1
2023-04-10T13:18:19.234Z,7.2
2023-04-10T13:19:32.778Z,7
2023-04-10T13:22:01.037Z,6.3
2023-04-10T13:24:29.291Z,6
2023-04-10T13:26:57.553Z,5.1
2023-04-10T13:29:25.808Z,7.8
2023-04-10T13:31:54.066Z,8.1
2023-04-10T13:34:22.322Z,6.1
2023-04-10T13:36:50.574Z,7.4
2023-04-10T13:41:47.084Z,6
2023-04-10T13:43:01.822Z,5.9
2023-04-10T13:44:15.359Z,6.2
2023-04-10T13:46:43.620Z,6.2
2023-04-10T13:49:11.882Z,5.1
2023-04-10T13:51:40.131Z,5.1
2023-04-10T13:54:08.391Z,5.4
2023-04-10T13:56:36.650Z,4.7
2023-04-10T13:59:04.901Z,6.1
2023-04-10T14:01:33.156Z,6.8
2023-04-10T14:04:01.421Z,4.6
2023-04-10T14:06:29.675Z,5.3
2023-04-10T14:07:44.400Z,4.7
2023-04-10T14:11:26.438Z,4.9
2023-04-10T14:13:54.693Z,5.3
2023-04-10T14:16:22.949Z,5.5
2023-04-10T14:18:51.207Z,6.5
2023-04-10T14:21:19.470Z,5.2
2023-04-10T14:23:47.722Z,6.1
2023-04-10T14:26:15.977Z,5.5
2023-04-10T14:28:44.238Z,6
2023-04-10T14:31:12.494Z,5.6
2023-04-10T14:32:27.222Z,6.1
2023-04-10T14:33:40.773Z,7.6
2023-04-10T14:36:09.028Z,5.6
2023-04-10T14:38:37.285Z,5.1
2023-04-10T14:43:33.797Z,6.5
2023-04-10T14:46:02.046Z,7.5
2023-04-10T14:48:30.311Z,5.9
2023-04-10T14:50:58.569Z,6.9
2023-04-10T14:53:26.821Z,10.1
2023-04-10T14:55:55.075Z,6.7
2023-04-10T14:57:09.806Z,6.2
2023-04-10T14:58:23.354Z,5.9
2023-04-10T15:00:51.613Z,7.3
2023-04-10T15:03:19.873Z,6.9
2023-04-10T15:05:48.127Z,8.1
2023-04-10T15:08:16.386Z,8.2
2023-04-10T15:10:44.637Z,8.3
2023-04-10T15:15:41.157Z,6.8
2023-04-10T15:18:09.405Z,6.7
2023-04-10T15:20:37.664Z,7.1
2023-04-10T15:21:52.398Z,7.9
2023-04-10T15:23:05.942Z,9.8
2023-04-10T15:25:34.198Z,7.2
2023-04-10T15:28:02.458Z,9.1
2023-04-10T15:30:30.712Z,7.7
2023-04-10T15:32:58.968Z,7.6
2023-04-10T15:35:27.228Z,6.9
2023-04-10T15:37:55.480Z,8
2023-04-10T15:40:23.740Z,7.2
2023-04-10T15:42:51.995Z,7.4
2023-04-10T15:46:34.981Z,6.1
2023-04-10T15:47:48.534Z,5.7
2023-04-10T15:50:16.788Z,7.5
2023-04-10T15:52:45.043Z,6.4
2023-04-10T15:55:13.302Z,8.5
2023-04-10T15:57:41.562Z,7
2023-04-10T16:00:09.818Z,7
2023-04-10T16:02:38.074Z,7.1
2023-04-10T16:05:06.331Z,8.4
2023-04-10T16:07:34.581Z,7.9
2023-04-10T16:10:02.847Z,7
2023-04-10T16:11:17.571Z,9
2023-04-10T16:12:31.115Z,7
2023-04-10T16:17:27.629Z,8.2
2023-04-10T16:19:55.894Z,7.2
2023-04-10T16:22:24.144Z,6
2023-04-10T16:24:52.402Z,6.2
2023-04-10T16:27:20.664Z,6.4
2023-04-10T16:29:48.919Z,9.8
2023-04-10T16:32:17.175Z,5.6
2023-04-10T16:34:45.431Z,5.5
2023-04-10T16:36:00.156Z,9.4
2023-04-10T16:37:13.701Z,6.5
2023-04-10T16:39:41.965Z,5.9
2023-04-10T16:42:10.220Z,8.9
2023-04-10T16:44:38.476Z,8.9
2023-04-10T16:49:34.988Z,6.2
2023-04-10T16:52:03.239Z,8.1
2023-04-10T16:54:31.502Z,7.4
2023-04-10T16:56:59.758Z,8.6
2023-04-10T16:59:28.008Z,6.8
2023-04-10T17:00:42.740Z,8.1
2023-04-10T17:01:56.286Z,7.8
2023-04-10T17:04:24.545Z,9.6
2023-04-10T17:06:52.800Z,8.5
2023-04-10T17:09:21.073Z,8.5
2023-04-10T17:11:49.314Z,11.5
2023-04-10T17:14:17.567Z,9.5
2023-04-10T17:16:45.829Z,8.8
2023-04-10T17:21:42.339Z,7.7
2023-04-10T17:24:10.599Z,8.9
2023-04-10T17:25:25.325Z,7.5
2023-04-10T17:26:38.868Z,9.6
2023-04-10T17:29:07.129Z,9.1
2023-04-10T17:31:35.387Z,8.5
2023-04-10T17:34:03.640Z,8.4
2023-04-10T17:36:31.898Z,11.4
2023-04-10T17:39:00.150Z,7.9
2023-04-10T17:41:28.406Z,9.4
2023-04-10T17:43:56.670Z,7.6
2023-04-10T17:46:24.926Z,7.7
2023-04-10T17:48:53.181Z,9.4
2023-04-10T17:51:21.439Z,7.9
2023-04-10T17:53:49.689Z,9.8
2023-04-10T17:56:17.949Z,8.6
2023-04-10T17:58:46.208Z,8.9
2023-04-10T18:01:14.460Z,9.4
2023-04-10T18:03:42.719Z,9.7
2023-04-10T18:06:10.983Z,7.4
2023-04-10T18:08:39.230Z,8.5
2023-04-10T18:11:07.493Z,9.7
2023-04-10T18:13:35.753Z,10.2
2023-04-10T18:14:50.494Z,8.3
2023-04-10T18:16:04.047Z,7.2
2023-04-10T18:18:32.298Z,7
2023-04-10T18:23:28.816Z,7.5
2023-04-10T18:25:57.071Z,8.1
2023-04-10T18:28:25.326Z,8.2
2023-04-10T18:30:53.587Z,7.6
2023-04-10T18:33:21.839Z,7.7
2023-04-10T18:35:50.098Z,9.4
2023-04-10T18:38:18.356Z,6.9
2023-04-10T18:39:33.085Z,9
2023-04-10T18:40:46.636Z,8
2023-04-10T18:43:14.884Z,10
2023-04-10T18:45:43.143Z,8.3
2023-04-10T18:48:11.398Z,8.7
2023-04-10T18:50:39.664Z,8.9
2023-04-10T18:55:36.178Z,10.1
2023-04-10T18:58:04.429Z,10.7
2023-04-10T19:00:32.688Z,9.4
2023-04-10T19:03:00.947Z,8.2
2023-04-10T19:04:15.670Z,8.8
2023-04-10T19:05:29.218Z,8.1
2023-04-10T19:07:57.473Z,8.3
2023-04-10T19:10:25.730Z,8
2023-04-10T19:12:53.995Z,9.1
2023-04-10T19:15:22.246Z,8.9
2023-04-10T19:17:50.510Z,10.3
2023-04-10T19:20:18.764Z,7.9
2023-04-10T19:22:47.016Z,9.4
2023-04-10T19:27:43.536Z,8.4
2023-04-10T19:28:58.264Z,9
2023-04-10T19:30:11.807Z,8.4
2023-04-10T19:32:40.069Z,8.4
2023-04-10T19:35:08.317Z,7.7
2023-04-10T19:37:36.575Z,8.4
2023-04-10T19:40:04.836Z,8.3
2023-04-10T19:42:33.096Z,8.8
2023-04-10T19:45:01.346Z,8.5
2023-04-10T19:47:29.608Z,7.3
2023-04-10T19:49:57.860Z,9.5
2023-04-10T19:52:26.122Z,8.8
2023-04-10T19:53:40.848Z,9.5
2023-04-10T19:57:22.884Z,7.9
2023-04-10T19:59:51.144Z,9
2023-04-10T20:02:19.401Z,9.3
2023-04-10T20:04:47.656Z,9.4
2023-04-10T20:07:15.910Z,8.1
2023-04-10T20:09:44.167Z,8.3
2023-04-10T20:12:12.425Z,8.8
2023-04-10T20:14:40.682Z,10.2
2023-04-10T20:17:08.937Z,9.8
2023-04-10T20:18:23.676Z,9.9
2023-04-10T20:19:37.218Z,10.2
2023-04-10T20:22:05.478Z,9.1
2023-04-10T20:24:33.730Z,7.9
2023-04-10T20:29:30.250Z,10.3
2023-04-10T20:31:58.501Z,9.4
2023-04-10T20:34:26.763Z,8.8
2023-04-10T20:36:55.014Z,9.3
2023-04-10T20:39:23.268Z,8.4
2023-04-10T20:41:51.524Z,8
2023-04-10T20:43:06.256Z,7.7
2023-04-10T20:44:19.802Z,8.7
2023-04-10T20:46:48.062Z,9.5
2023-04-10T20:49:16.320Z,9.6
2023-04-10T20:51:44.578Z,8.5
2023-04-10T20:54:12.830Z,8.6
2023-04-10T20:56:41.094Z,7.8
2023-04-10T21:01:37.608Z,11.2
2023-04-10T21:04:05.861Z,9.6
2023-04-10T21:06:34.121Z,10.3
2023-04-10T21:07:48.850Z,10.2
2023-04-10T21:09:02.389Z,8.8
2023-04-10T21:11:30.650Z,7.9
2023-04-10T21:13:58.906Z,8
2023-04-10T21:16:27.165Z,9.2
2023-04-10T21:18:55.418Z,7.6
2023-04-10T21:21:23.679Z,7.6
2023-04-10T21:23:51.933Z,15.2
2023-04-10T21:26:20.187Z,7.6
2023-04-10T21:28:48.447Z,8.3
2023-04-10T21:32:31.434Z,7.1
2023-04-10T21:33:44.984Z,7.5
2023-04-10T21:36:13.231Z,6.9
2023-04-10T21:38:41.487Z,10.5
2023-04-10T21:41:09.746Z,7.6
2023-04-10T21:43:38.007Z,8.3
2023-04-10T21:46:06.263Z,8.7
2023-04-10T21:48:34.514Z,9.8
2023-04-10T21:51:02.771Z,6.6
2023-04-10T21:53:31.031Z,8.1
2023-04-10T21:55:59.283Z,8.1
2023-04-10T21:57:14.021Z,5.9
2023-04-10T21:58:27.568Z,6
2023-04-10T22:03:24.078Z,7.4
2023-04-10T22:05:52.330Z,4.8
2023-04-10T22:08:20.595Z,5.4
2023-04-10T22:10:48.850Z,7
2023-04-10T22:13:17.102Z,4.3
2023-04-10T22:15:45.363Z,5.3
2023-04-10T22:18:13.612Z,6.2
2023-04-10T22:20:41.875Z,5.9
2023-04-10T22:21:56.600Z,7.8
2023-04-10T22:23:10.153Z,4.3
2023-04-10T22:25:38.406Z,5.1
2023-04-10T22:28:06.662Z,4.9
2023-04-10T22:30:34.917Z,4.9
2023-04-10T22:35:31.430Z,4.8
2023-04-10T22:37:59.687Z,5.3
2023-04-10T22:40:27.943Z,4.7
2023-04-10T22:42:56.198Z,5.6
2023-04-10T22:45:24.459Z,6.3
2023-04-10T22:46:39.187Z,4.8
2023-04-10T22:47:52.730Z,6.1
2023-04-10T22:50:20.987Z,5.5
2023-04-10T22:52:49.243Z,5.5
2023-04-10T22:55:17.502Z,6
2023-04-10T22:57:45.761Z,5.8
2023-04-10T23:00:14.014Z,8.6
2023-04-10T23:02:42.278Z,7.3
2023-04-10T23:07:38.784Z,7.6
2023-04-10T23:10:07.041Z,5.5
2023-04-10T23:11:21.780Z,5.4
2023-04-10T23:12:35.326Z,6.7
2023-04-10T23:15:03.575Z,7.5
2023-04-10T23:17:31.835Z,6.4
2023-04-10T23:20:00.090Z,6.8
2023-04-10T23:22:28.355Z,6.3
2023-04-10T23:24:56.609Z,8.3
2023-04-10T23:27:24.862Z,8.1
2023-04-10T23:29:53.121Z,5.5
2023-04-10T23:32:21.373Z,5.2
2023-04-10T23:34:49.635Z,6.5
2023-04-10T23:37:17.891Z,6.2
2023-04-10T23:39:46.149Z,7.2
2023-04-10T23:42:14.404Z,7.6
2023-04-10T23:44:42.662Z,7.2
2023-04-10T23:47:10.921Z,6.5
2023-04-10T23:49:39.171Z,6.6
2023-04-10T23:52:07.435Z,9.9
2023-04-10T23:54:35.687Z,6.5
2023-04-10T23:57:03.947Z,6
2023-04-10T23:59:32.204Z,6.2
